Time;durP1;ratioP1;P1;durP2;ratioP2;P2;SDS_P1;SDS_P2;PMS_P1;PMS_P2;Temp;Humidity;BMP_temperature;BMP_pressure;BME280_temperature;BME280_humidity;BME280_pressure;Samples;Min_cycle;Max_cycle;Signal;HPM_P1;HPM_P2
2023/01/13 00:01:27;;;;;;;24.80;12.70;;;;;;;2.35;91.32;95977.48;110451;1276;22817;-68
2023/01/13 00:03:56;;;;;;;25.60;12.90;;;;;;;2.30;91.61;95980.52;110345;1276;22099;-68
2023/01/13 00:06:25;;;;;;;29.10;13.80;;;;;;;2.26;91.62;95977.66;110345;1276;22133;-68
2023/01/13 00:08:53;;;;;;;27.20;13.90;;;;;;;2.24;91.65;95977.44;110429;1276;22130;-68
2023/01/13 00:11:22;;;;;;;27.20;13.40;;;;;;;2.24;92.02;95977.95;110372;1276;22187;-68
2023/01/13 00:13:50;;;;;;;26.00;13.60;;;;;;;2.24;92.11;95978.48;110445;1276;22920;-68
2023/01/13 00:16:19;;;;;;;26.40;13.40;;;;;;;2.26;92.31;95975.75;110382;1276;22154;-68
2023/01/13 00:18:50;;;;;;;25.90;13.60;;;;;;;2.31;92.34;95974.98;110348;1276;22860;-69
2023/01/13 00:21:23;;;;;;;26.00;14.00;;;;;;;2.35;92.35;95974.89;110352;1276;22137;-68
2023/01/13 00:23:52;;;;;;;;;;;;;;;2.38;92.31;95979.11;110346;1276;22191;-68
2023/01/13 00:26:23;;;;;;;20.70;10.90;;;;;;;2.35;91.84;95983.39;110352;1276;22841;-68
2023/01/13 00:28:57;;;;;;;24.10;11.90;;;;;;;2.33;91.59;95989.25;110373;1276;22167;-68
2023/01/13 00:31:26;;;;;;;22.70;11.00;;;;;;;2.33;91.86;95991.52;110366;1276;22247;-69
2023/01/13 00:33:59;;;;;;;18.70;10.30;;;;;;;2.33;91.63;95986.83;110460;1276;22136;-68
2023/01/13 00:36:28;;;;;;;15.20;8.40;;;;;;;2.36;91.65;95984.96;110431;1276;22146;-68
2023/01/13 00:38:57;;;;;;;23.20;10.60;;;;;;;2.39;91.63;95987.80;110362;1276;22157;-68
2023/01/13 00:41:26;;;;;;;26.50;12.70;;;;;;;2.41;91.70;95990.61;110362;1276;22325;-68
2023/01/13 00:43:54;;;;;;;28.30;13.90;;;;;;;2.39;91.78;95993.70;110361;1276;22186;-68
2023/01/13 00:46:22;;;;;;;29.90;14.60;;;;;;;2.42;92.10;95988.92;110433;1276;22365;-68
2023/01/13 00:48:51;;;;;;;33.60;15.70;;;;;;;2.48;92.39;95988.48;110459;1276;22090;-68
2023/01/13 00:51:20;;;;;;;34.70;16.50;;;;;;;2.55;92.71;95991.40;110410;1276;22297;-68
2023/01/13 00:53:50;;;;;;;35.60;16.70;;;;;;;2.59;92.55;95992.00;110362;1276;22359;-68
2023/01/13 00:56:21;;;;;;;32.50;16.60;;;;;;;2.59;92.21;95991.83;110364;1276;22135;-68
2023/01/13 00:59:11;;;;;;;28.40;14.90;;;;;;;2.60;92.38;95990.12;110389;1276;22658;-68
2023/01/13 01:01:40;;;;;;;25.40;13.10;;;;;;;2.64;92.46;95993.14;110452;1276;22169;-68
2023/01/13 01:04:08;;;;;;;20.00;11.70;;;;;;;2.67;92.35;95991.64;110427;1276;22102;-68
2023/01/13 01:06:37;;;;;;;20.60;11.20;;;;;;;2.69;92.19;95985.59;110442;1276;22321;-68
2023/01/13 01:09:05;;;;;;;21.60;11.60;;;;;;;2.67;91.67;95988.14;110446;1276;22160;-68
2023/01/13 01:11:33;;;;;;;19.60;11.20;;;;;;;2.61;91.44;95990.83;110405;1276;22826;-68
2023/01/13 01:14:02;;;;;;;22.00;11.90;;;;;;;2.59;91.65;95988.70;110435;1276;23016;-68
2023/01/13 01:16:32;;;;;;;20.70;11.20;;;;;;;2.60;91.91;95982.98;110346;1276;22183;-68
2023/01/13 01:19:02;;;;;;;22.50;11.40;;;;;;;2.60;91.69;95973.27;110366;1276;22110;-68
2023/01/13 01:21:31;;;;;;;20.70;11.50;;;;;;;2.53;91.53;95975.38;110450;1276;22179;-68
2023/01/13 01:24:01;;;;;;;20.80;12.00;;;;;;;2.51;91.76;95972.23;110379;1276;22134;-68
2023/01/13 01:26:30;;;;;;;26.60;13.60;;;;;;;2.50;92.06;95967.52;110378;1276;22264;-68
2023/01/13 01:29:01;;;;;;;30.10;15.10;;;;;;;2.52;92.19;95971.21;110394;1276;22618;-68
2023/01/13 01:31:32;;;;;;;29.50;15.20;;;;;;;2.56;92.26;95962.24;110426;1276;22141;-69
2023/01/13 01:34:00;;;;;;;25.00;13.50;;;;;;;2.59;92.28;95966.30;110365;1276;22148;-68
2023/01/13 01:36:29;;;;;;;25.30;12.80;;;;;;;2.62;92.17;95970.19;110453;1276;22280;-68
2023/01/13 01:38:58;;;;;;;22.50;11.70;;;;;;;2.59;91.92;95961.96;110354;1276;22115;-68
2023/01/13 01:41:29;;;;;;;24.50;13.70;;;;;;;2.58;91.92;95962.64;110333;1276;22162;-68
2023/01/13 01:44:06;;;;;;;31.30;14.70;;;;;;;2.61;92.04;95959.90;110381;1276;22227;-68
2023/01/13 01:46:39;;;;;;;37.00;17.40;;;;;;;2.62;91.95;95959.94;110359;1276;22143;-68
2023/01/13 01:49:13;;;;;;;27.30;14.60;;;;;;;2.59;91.71;95960.21;110373;1276;22215;-68
2023/01/13 01:52:03;;;;;;;32.20;15.90;;;;;;;2.55;91.65;95958.40;110453;1276;22128;-68
2023/01/13 01:54:47;;;;;;;26.00;13.40;;;;;;;2.48;91.46;95959.33;110390;1276;23287;-68
2023/01/13 01:57:42;;;;;;;27.80;13.10;;;;;;;2.45;91.70;95960.48;110390;1276;22299;-68
2023/01/13 02:00:12;;;;;;;26.70;13.30;;;;;;;2.38;91.55;95960.02;110450;1276;22128;-68
2023/01/13 02:02:44;;;;;;;25.20;13.40;;;;;;;2.28;91.56;95958.62;110445;1276;22200;-68
2023/01/13 02:05:13;;;;;;;26.70;13.80;;;;;;;2.22;91.83;95961.45;110442;1276;22896;-68
2023/01/13 02:07:43;;;;;;;29.50;14.70;;;;;;;2.19;91.95;95957.56;110449;1276;22191;-68
2023/01/13 02:10:14;;;;;;;26.40;13.80;;;;;;;2.19;91.92;95953.55;110442;1276;22273;-68
2023/01/13 02:12:44;;;;;;;24.20;12.30;;;;;;;2.16;91.90;95961.49;110376;1261;22953;-68
2023/01/13 02:15:16;;;;;;;20.90;11.20;;;;;;;2.11;91.85;95963.66;110380;1276;22138;-68
2023/01/13 02:18:05;;;;;;;17.30;10.20;;;;;;;2.07;91.99;95963.73;110376;1276;22957;-68
2023/01/13 02:20:58;;;;;;;16.70;9.60;;;;;;;2.02;92.05;95966.94;110414;1276;22188;-69
2023/01/13 02:26:39;;;;;;;12.80;8.40;;;;;;;2.00;92.34;95963.61;110439;1276;22147;-68
2023/01/13 02:32:50;;;;;;;15.30;8.90;;;;;;;2.08;92.63;95961.18;110449;1276;22939;-68
2023/01/13 02:35:34;;;;;;;14.10;8.60;;;;;;;2.11;92.55;95957.59;110457;1261;22211;-68
2023/01/13 02:38:04;;;;;;;16.30;8.70;;;;;;;2.13;92.60;95952.59;110215;1276;22158;-68
2023/01/13 02:40:58;;;;;;;15.00;9.10;;;;;;;2.15;92.41;95954.01;110430;1276;22189;-68
2023/01/13 02:46:30;;;;;;;21.70;11.30;;;;;;;2.13;91.97;95955.02;110373;1276;22151;-68
2023/01/13 02:49:04;;;;;;;22.90;11.90;;;;;;;2.14;92.30;95953.99;110443;1276;22209;-69
2023/01/13 02:51:34;;;;;;;26.80;12.40;;;;;;;2.18;92.32;95949.73;110479;1276;22274;-68
2023/01/13 02:54:12;;;;;;;28.70;16.30;;;;;;;2.24;92.73;95952.11;110424;1276;22083;-68
2023/01/13 02:56:46;;;;;;;19.60;11.30;;;;;;;2.26;92.59;95952.48;110373;1276;22139;-69
2023/01/13 02:59:14;;;;;;;26.60;15.20;;;;;;;2.27;92.58;95949.56;110377;1276;22420;-68
2023/01/13 03:01:42;;;;;;;31.30;17.30;;;;;;;2.28;92.49;95944.72;110436;1276;22121;-68
2023/01/13 03:04:13;;;;;;;31.70;16.60;;;;;;;2.30;92.62;95945.81;110461;1276;22274;-69
2023/01/13 03:07:00;;;;;;;29.30;16.70;;;;;;;2.35;92.82;95950.25;110193;1276;22184;-69
2023/01/13 03:09:35;;;;;;;27.70;15.20;;;;;;;2.41;92.86;95948.77;110461;1276;22170;-68
2023/01/13 03:12:13;;;;;;;17.00;10.80;;;;;;;2.43;92.62;95946.56;110373;1276;22210;-68
2023/01/13 03:14:54;;;;;;;13.60;8.00;;;;;;;2.45;92.63;95943.66;110434;1276;22449;-68
2023/01/13 03:17:31;;;;;;;16.60;8.80;;;;;;;2.49;92.68;95942.51;110431;1276;22180;-68
2023/01/13 03:20:08;;;;;;;13.70;8.40;;;;;;;2.52;92.42;95943.59;110462;1276;22180;-68
2023/01/13 03:22:48;;;;;;;9.10;5.40;;;;;;;2.51;92.14;95943.92;110424;1276;22152;-69
2023/01/13 03:25:25;;;;;;;6.50;4.50;;;;;;;2.47;91.68;95947.84;110369;1276;22145;-68
2023/01/13 03:28:29;;;;;;;7.30;4.60;;;;;;;2.39;91.04;95953.27;110344;1276;22919;-69
2023/01/13 03:31:06;;;;;;;7.40;5.20;;;;;;;2.37;91.25;95948.73;110199;1276;22126;-68
2023/01/13 03:34:08;;;;;;;19.10;10.40;;;;;;;2.31;91.03;95945.81;110445;1276;22362;-68
2023/01/13 03:36:40;;;;;;;20.80;13.10;;;;;;;2.24;90.88;95947.95;110327;1276;22205;-69
2023/01/13 03:39:14;;;;;;;12.30;7.00;;;;;;;2.17;90.88;95949.02;110373;1276;22292;-68
2023/01/13 03:41:56;;;;;;;14.60;8.60;;;;;;;2.13;90.87;95950.66;110438;1276;22136;-69
2023/01/13 03:44:35;;;;;;;14.20;8.20;;;;;;;2.11;91.34;95955.84;110375;1276;22181;-68
2023/01/13 03:47:22;;;;;;;8.80;6.00;;;;;;;2.12;91.81;95958.98;110426;1276;22214;-69
2023/01/13 03:49:59;;;;;;;10.00;5.50;;;;;;;2.09;91.45;95961.18;110459;1276;23121;-68
2023/01/13 03:52:38;;;;;;;7.50;4.80;;;;;;;2.07;91.38;95964.45;110477;1276;22849;-69
2023/01/13 03:55:12;;;;;;;8.60;5.50;;;;;;;2.09;91.75;95967.79;110454;1276;22194;-68
2023/01/13 03:57:48;;;;;;;6.30;4.20;;;;;;;2.12;91.72;95965.23;110442;1273;22247;-68
2023/01/13 04:00:18;;;;;;;9.60;5.70;;;;;;;2.13;91.67;95962.84;110370;1276;23041;-68
2023/01/13 04:02:49;;;;;;;9.60;5.60;;;;;;;2.09;91.15;95971.41;110358;1276;22833;-68
2023/01/13 04:05:18;;;;;;;7.80;5.40;;;;;;;2.06;91.10;95974.32;110485;1276;22143;-68
2023/01/13 04:08:01;;;;;;;9.50;4.70;;;;;;;2.04;91.37;95970.63;110459;1276;23121;-68
2023/01/13 04:11:01;;;;;;;7.30;4.80;;;;;;;2.02;91.33;95967.80;109299;1276;1434229;-69
2023/01/13 04:13:34;;;;;;;10.90;6.10;;;;;;;2.04;91.62;95969.75;110360;1276;22103;-69
2023/01/13 04:16:06;;;;;;;10.70;7.70;;;;;;;2.04;91.86;95972.73;110475;1276;22113;-69
2023/01/13 04:18:37;;;;;;;12.20;6.50;;;;;;;2.05;91.97;95970.31;110444;1276;22220;-68
2023/01/13 04:21:06;;;;;;;13.50;7.40;;;;;;;2.04;91.88;95970.63;110471;1276;22188;-68
2023/01/13 04:23:34;;;;;;;11.90;8.00;;;;;;;1.99;91.50;95975.39;110438;1276;23033;-68
2023/01/13 04:26:03;;;;;;;12.60;7.80;;;;;;;1.96;91.63;95977.59;110441;1276;22208;-69
2023/01/13 04:28:33;;;;;;;15.10;8.60;;;;;;;1.97;91.57;95977.77;110478;1262;22304;-69
2023/01/13 04:31:01;;;;;;;11.80;8.00;;;;;;;1.98;91.70;95974.48;110475;1276;22220;-68
2023/01/13 04:33:29;;;;;;;12.80;7.60;;;;;;;2.00;91.77;95971.77;110436;1276;22907;-69
2023/01/13 04:35:57;;;;;;;10.90;6.40;;;;;;;2.00;91.60;95967.93;110453;1276;22122;-68
2023/01/13 04:38:26;;;;;;;14.00;7.90;;;;;;;1.97;91.46;95969.10;110457;1276;22204;-68
2023/01/13 04:40:54;;;;;;;11.40;7.20;;;;;;;1.91;91.50;95976.42;110418;1276;22590;-69
2023/01/13 04:43:22;;;;;;;12.50;7.40;;;;;;;1.84;91.57;95973.86;110472;1276;22140;-69
2023/01/13 04:45:50;;;;;;;9.50;6.60;;;;;;;1.77;91.53;95975.09;110466;1276;22205;-69
2023/01/13 04:48:18;;;;;;;11.80;6.60;;;;;;;1.71;91.53;95976.36;110468;1276;22119;-69
2023/01/13 04:50:46;;;;;;;14.00;8.30;;;;;;;1.70;91.91;95979.12;110468;1276;22885;-69
2023/01/13 04:53:15;;;;;;;13.10;8.30;;;;;;;1.68;91.81;95978.71;110457;1276;22576;-68
2023/01/13 04:55:43;;;;;;;15.20;9.20;;;;;;;1.64;91.69;95980.73;110452;1276;22870;-68
2023/01/13 04:58:11;;;;;;;8.70;5.70;;;;;;;1.61;91.83;95980.98;110366;1276;22144;-68
2023/01/13 05:00:39;;;;;;;8.10;4.50;;;;;;;1.63;91.95;95979.48;110457;1276;22297;-68
2023/01/13 05:03:07;;;;;;;6.90;4.40;;;;;;;1.59;91.53;95979.73;110479;1276;22313;-69
2023/01/13 05:05:36;;;;;;;8.00;4.90;;;;;;;1.55;91.39;95978.25;110438;1276;23007;-69
2023/01/13 05:08:05;;;;;;;8.40;4.00;;;;;;;1.57;92.07;95974.49;110359;1276;22254;-69
2023/01/13 05:10:33;;;;;;;11.40;4.50;;;;;;;1.62;92.41;95977.89;110457;1276;22339;-69
2023/01/13 05:18:33;;;;;;;4.50;3.00;;;;;;;1.49;91.38;95980.38;110469;1276;22942;-69
2023/01/13 05:21:01;;;;;;;8.10;5.00;;;;;;;1.35;91.08;95988.73;110477;1276;22427;-69
2023/01/13 05:26:16;;;;;;;4.60;3.30;;;;;;;1.27;91.51;95991.32;110468;1276;23082;-69
2023/01/13 05:28:44;;;;;;;6.20;3.40;;;;;;;1.18;91.25;95995.09;110471;1276;22933;-69
2023/01/13 05:31:13;;;;;;;6.60;3.90;;;;;;;1.14;91.31;95996.54;110342;1276;22266;-69
2023/01/13 05:33:42;;;;;;;6.80;4.30;;;;;;;1.09;91.59;95999.21;110478;1276;22280;-69
2023/01/13 05:36:09;;;;;;;6.80;3.60;;;;;;;1.06;91.70;95999.14;110492;1276;22119;-69
2023/01/13 05:38:38;;;;;;;8.60;4.50;;;;;;;0.97;91.18;96000.30;110463;1276;22136;-68
2023/01/13 05:43:53;;;;;;;5.70;3.90;;;;;;;0.78;91.53;96006.60;110482;1276;22143;-69
2023/01/13 05:46:21;;;;;;;6.80;3.80;;;;;;;0.76;91.61;96002.88;110481;1276;22117;-69
2023/01/13 05:48:49;;;;;;;9.20;5.60;;;;;;;0.68;91.39;96002.52;110473;1276;22275;-69
2023/01/13 05:51:21;;;;;;;8.10;5.50;;;;;;;0.69;91.83;96005.14;110344;1276;22880;-69
2023/01/13 05:53:49;;;;;;;9.80;5.50;;;;;;;0.68;91.81;96001.30;110487;1276;22125;-69
2023/01/13 05:56:17;;;;;;;9.40;4.80;;;;;;;0.69;91.92;96002.36;110486;1276;22126;-68
2023/01/13 05:58:45;;;;;;;6.30;4.20;;;;;;;0.71;92.05;95998.59;110453;1276;22280;-69
2023/01/13 06:01:13;;;;;;;7.70;3.80;;;;;;;0.74;92.14;95997.99;110476;1276;22125;-68
2023/01/13 06:03:41;;;;;;;10.30;5.90;;;;;;;0.71;91.49;95999.29;110418;1276;22993;-68
2023/01/13 06:06:09;;;;;;;5.50;3.80;;;;;;;0.66;91.24;95998.48;110348;1276;22248;-67
2023/01/13 06:08:37;;;;;;;6.30;3.80;;;;;;;0.66;91.42;95998.66;110296;1277;22189;-66
2023/01/13 06:11:07;;;;;;;8.10;4.60;;;;;;;0.66;91.30;96003.33;110312;1277;22289;-66
2023/01/13 06:13:35;;;;;;;6.10;3.70;;;;;;;0.70;91.72;96004.80;110291;1277;22865;-72
2023/01/13 06:16:03;;;;;;;5.90;4.00;;;;;;;0.72;91.51;96006.41;110330;1277;22174;-69
2023/01/13 06:18:32;;;;;;;7.00;3.40;;;;;;;0.73;91.46;96009.92;110275;1277;22220;-75
2023/01/13 06:21:00;;;;;;;24.10;10.90;;;;;;;0.67;91.05;96010.78;110342;1277;22244;-68
2023/01/13 06:23:28;;;;;;;61.40;30.70;;;;;;;0.59;90.99;96010.05;110315;1277;22835;-73
2023/01/13 06:26:09;;;;;;;67.50;31.00;;;;;;;0.55;91.03;96008.21;110331;1277;22094;-71
2023/01/13 06:28:37;;;;;;;64.60;34.20;;;;;;;0.54;91.36;96008.88;110327;1277;22229;-69
2023/01/13 06:31:07;;;;;;;57.20;27.30;;;;;;;0.56;91.75;96009.30;110286;1277;22204;-69
2023/01/13 06:33:39;;;;;;;42.10;22.80;;;;;;;0.57;91.78;96011.73;110192;1277;22189;-69
2023/01/13 06:36:21;;;;;;;60.40;32.40;;;;;;;0.59;91.57;96012.48;110293;1277;22179;-68
2023/01/13 06:38:53;;;;;;;77.80;35.60;;;;;;;0.58;91.64;96017.50;110259;1277;22279;-71
2023/01/13 06:43:13;;;;;;;87.10;40.20;;;;;;;0.60;91.86;96012.86;110246;1277;22211;-69
2023/01/13 06:44:11;;;;;;;73.60;36.50;;;;;;;0.65;92.21;96011.60;110338;1277;22196;-70
2023/01/13 06:46:39;;;;;;;60.90;29.70;;;;;;;0.70;92.20;96009.64;110326;1277;22207;-68
2023/01/13 06:49:07;;;;;;;42.60;21.90;;;;;;;0.69;92.21;96007.54;110294;1277;22414;-70
2023/01/13 06:51:35;;;;;;;60.80;30.40;;;;;;;0.62;92.30;96006.33;110326;1277;22116;-71
2023/01/13 06:54:04;;;;;;;86.40;38.80;;;;;;;0.64;92.72;96007.26;110294;1277;22348;-69
2023/01/13 06:56:32;;;;;;;101.10;43.40;;;;;;;0.70;92.99;96008.27;110321;1277;22445;-67
2023/01/13 06:59:00;;;;;;;92.50;38.50;;;;;;;0.79;93.12;96012.12;110287;1277;22174;-72
2023/01/13 07:01:29;;;;;;;74.10;31.90;;;;;;;0.83;93.11;96011.73;110280;1277;22210;-71
2023/01/13 07:03:57;;;;;;;46.20;24.20;;;;;;;0.85;93.53;96006.92;110270;1277;22218;-70
2023/01/13 07:06:25;;;;;;;33.00;18.30;;;;;;;0.89;94.12;96006.85;110273;1277;22888;-68
2023/01/13 07:08:54;;;;;;;186.30;109.20;;;;;;;0.92;93.82;95996.71;110299;1276;23046;-69
2023/01/13 07:11:22;;;;;;;85.50;49.10;;;;;;;1.04;93.97;95994.06;110476;1276;22177;-67
2023/01/13 07:16:37;;;;;;;35.30;18.50;;;;;;;1.31;93.64;95994.02;110284;1276;22196;-68
2023/01/13 07:19:05;;;;;;;24.60;15.60;;;;;;;1.41;93.32;95996.33;110250;1276;22301;-69
2023/01/13 07:21:33;;;;;;;12.90;8.50;;;;;;;1.44;92.32;95995.52;110298;1276;23043;-78
2023/01/13 07:24:01;;;;;;;15.90;9.70;;;;;;;1.41;91.71;95994.59;110453;1276;22204;-72
2023/01/13 07:26:29;;;;;;;11.30;8.00;;;;;;;1.42;92.09;95995.30;110429;1276;22398;-77
2023/01/13 07:28:57;;;;;;;20.90;11.50;;;;;;;1.47;92.43;96000.80;110467;1276;22204;-77
2023/01/13 07:31:25;;;;;;;16.00;9.70;;;;;;;1.55;92.27;96003.04;110438;1276;22888;-74
2023/01/13 07:33:54;;;;;;;14.30;8.60;;;;;;;1.59;92.20;96001.59;110434;1276;22212;-76
2023/01/13 07:36:22;;;;;;;10.40;6.20;;;;;;;1.67;92.38;95998.13;110474;1271;22180;-73
2023/01/13 07:38:50;;;;;;;14.30;8.70;;;;;;;1.74;91.70;95996.73;110510;1276;22503;-71
2023/01/13 07:44:09;;;;;;;14.80;8.50;;;;;;;1.62;90.57;96003.22;110483;1276;22152;-72
2023/01/13 07:46:38;;;;;;;14.40;8.80;;;;;;;1.54;90.70;96000.08;110480;1261;22963;-75
2023/01/13 07:49:07;;;;;;;16.30;9.90;;;;;;;1.55;91.25;95999.06;110496;1276;22343;-71
2023/01/13 07:51:39;;;;;;;15.10;9.40;;;;;;;1.64;91.82;95994.75;110306;1261;22150;-68
2023/01/13 07:54:07;;;;;;;12.90;8.20;;;;;;;1.68;91.52;95999.03;110468;1276;22183;-70
2023/01/13 07:56:35;;;;;;;12.00;7.00;;;;;;;1.76;91.64;95998.67;110497;1276;22426;-71
2023/01/13 07:59:03;;;;;;;13.90;8.20;;;;;;;1.83;91.45;96000.20;110497;1276;22206;-69
2023/01/13 08:01:32;;;;;;;15.70;7.90;;;;;;;1.92;91.58;96001.98;110510;1276;22167;-68
2023/01/13 08:04:00;;;;;;;13.10;8.10;;;;;;;1.99;90.94;96003.85;110293;1276;22399;-77
2023/01/13 08:06:28;;;;;;;11.70;7.50;;;;;;;1.99;90.41;96002.29;110497;1276;22119;-71
2023/01/13 08:08:57;;;;;;;12.50;8.20;;;;;;;1.98;90.24;96001.73;110497;1276;22190;-69
2023/01/13 08:11:25;;;;;;;12.70;7.60;;;;;;;1.98;90.11;96002.09;110462;1276;22150;-67
2023/01/13 08:13:56;;;;;;;15.50;9.20;;;;;;;1.92;89.69;96001.26;110534;1276;22880;-71
2023/01/13 08:16:25;;;;;;;13.70;8.50;;;;;;;1.94;90.44;96000.61;110467;1276;22383;-70
2023/01/13 08:18:53;;;;;;;14.30;9.70;;;;;;;2.05;91.21;95999.98;110512;1276;22163;-74
2023/01/13 08:21:21;;;;;;;19.70;11.30;;;;;;;2.20;91.36;95997.49;110533;1276;22603;-75
2023/01/13 08:23:49;;;;;;;27.10;18.20;;;;;;;2.28;90.92;96003.40;110530;1276;22304;-70
2023/01/13 08:26:17;;;;;;;25.20;15.60;;;;;;;2.39;90.58;95997.70;110508;1276;22196;-72
2023/01/13 08:28:46;;;;;;;15.40;10.40;;;;;;;2.48;90.29;95997.88;110520;1276;22281;-82
2023/01/13 08:31:15;;;;;;;11.00;7.60;;;;;;;2.57;89.91;95998.40;110244;1276;22545;-67
2023/01/13 08:33:44;;;;;;;13.80;9.10;;;;;;;2.71;90.07;95996.04;110456;1276;22210;-67
2023/01/13 08:36:12;;;;;;;11.80;7.60;;;;;;;2.83;89.78;95996.27;110495;1274;22204;-75
2023/01/13 08:38:41;;;;;;;10.50;8.10;;;;;;;2.95;90.07;95994.57;110445;1276;22193;-75
2023/01/13 08:41:14;;;;;;;11.30;6.60;;;;;;;3.09;89.98;95994.44;110457;1276;22322;-77
2023/01/13 08:43:42;;;;;;;;;;;;;;;3.21;89.29;95993.42;110236;1275;22384;-74
2023/01/13 08:46:11;;;;;;;11.30;8.30;;;;;;;3.27;88.16;95990.73;110264;1276;22395;-78
2023/01/13 08:48:39;;;;;;;10.90;7.70;;;;;;;3.30;87.74;95990.42;110507;1276;22835;-75
2023/01/13 08:51:08;;;;;;;13.00;8.70;;;;;;;3.35;87.82;95986.70;110532;1276;22205;-74
2023/01/13 08:53:36;;;;;;;11.60;7.60;;;;;;;3.45;88.16;95983.54;110257;1276;22229;-80
2023/01/13 08:56:11;;;;;;;9.90;7.00;;;;;;;3.54;87.82;95983.15;110485;1276;22250;-70
2023/01/13 08:58:40;;;;;;;10.50;6.90;;;;;;;3.58;87.88;95981.46;110462;1276;22415;-75
2023/01/13 09:01:12;;;;;;;10.10;6.50;;;;;;;3.59;87.38;95983.92;110445;1265;22156;-76
2023/01/13 09:03:41;;;;;;;8.20;5.60;;;;;;;3.61;87.41;95976.83;110494;1265;22147;-73
2023/01/13 09:06:09;;;;;;;9.40;6.50;;;;;;;3.74;87.57;95970.05;110469;1276;22174;-70
2023/01/13 09:08:37;;;;;;;15.50;9.00;;;;;;;3.85;87.48;95971.41;110444;1276;23167;-71
2023/01/13 09:13:10;;;;;;;27.80;17.50;;;;;;;3.98;87.78;95967.41;110241;1276;22926;-71
2023/01/13 09:13:53;;;;;;;11.30;8.00;;;;;;;4.16;87.90;95971.47;110349;1274;23224;-72
2023/01/13 09:16:22;;;;;;;15.00;9.00;;;;;;;4.27;87.10;95971.93;110214;1271;22331;-72
2023/01/13 09:18:50;;;;;;;13.30;10.60;;;;;;;4.40;87.13;95970.16;110338;1276;22315;-71
2023/01/13 09:21:19;;;;;;;10.10;4.90;;;;;;;4.56;87.17;95972.45;110366;1276;22289;-72
2023/01/13 09:23:48;;;;;;;6.40;5.40;;;;;;;4.71;86.11;95971.02;110363;1267;22418;-72
2023/01/13 09:26:19;;;;;;;8.30;7.40;;;;;;;4.82;84.76;95967.47;110392;1270;22175;-75
2023/01/13 09:28:47;;;;;;;7.40;4.40;;;;;;;4.93;84.80;95964.96;110254;1276;22295;-70
2023/01/13 09:31:16;;;;;;;5.60;4.20;;;;;;;5.02;82.67;95967.66;110274;1276;22197;-75
2023/01/13 09:36:31;;;;;;;7.40;6.10;;;;;;;5.28;83.86;95961.26;110480;1276;22954;-68
2023/01/13 09:38:59;;;;;;;6.70;4.30;;;;;;;5.40;83.99;95956.80;110456;1276;22198;-76
2023/01/13 09:44:24;;;;;;;7.00;5.40;;;;;;;5.63;82.02;95950.66;110261;1277;22147;-72
2023/01/13 09:46:59;;;;;;;12.40;10.30;;;;;;;5.74;81.96;95954.23;110321;1273;22292;-68
2023/01/13 09:49:37;;;;;;;7.20;4.30;;;;;;;5.81;80.49;95958.80;110383;1276;22420;-77
2023/01/13 09:52:18;;;;;;;5.00;3.70;;;;;;;5.85;77.98;95952.02;110233;1274;23003;-70
2023/01/13 09:55:09;;;;;;;4.60;3.70;;;;;;;5.93;78.40;95948.77;110330;1276;22851;-74
2023/01/13 09:57:38;;;;;;;4.20;3.70;;;;;;;6.05;78.54;95944.13;110378;1269;22252;-72
2023/01/13 10:00:14;;;;;;;4.00;3.20;;;;;;;6.18;77.30;95942.08;110303;1276;22312;-74
2023/01/13 10:03:05;;;;;;;4.00;2.70;;;;;;;6.48;78.08;95936.41;110236;1276;22202;-68
2023/01/13 10:05:37;;;;;;;5.30;3.70;;;;;;;7.00;77.50;95937.38;110386;1276;22319;-70
2023/01/13 10:08:36;;;;;;;3.00;2.70;;;;;;;7.50;75.00;95932.83;110217;1277;22147;-71
2023/01/13 10:14:01;;;;;;;6.10;4.10;;;;;;;8.33;67.43;95918.39;110296;1277;22156;-70
2023/01/13 10:16:35;;;;;;;7.50;5.90;;;;;;;8.50;64.93;95916.06;110323;1269;22120;-68
2023/01/13 10:19:26;;;;;;;7.40;6.70;;;;;;;8.85;66.10;95916.55;110294;1271;22305;-68
2023/01/13 10:21:54;;;;;;;4.60;3.90;;;;;;;9.37;66.32;95912.10;110355;1276;22237;-68
2023/01/13 10:24:41;;;;;;;5.20;4.30;;;;;;;9.74;64.83;95904.02;110281;1277;22201;-69
2023/01/13 10:27:24;;;;;;;5.40;4.10;;;;;;;10.20;64.04;95898.24;110185;1277;22142;-69
2023/01/13 10:29:52;;;;;;;4.90;3.60;;;;;;;10.56;62.60;95892.36;110216;1278;22179;-69
2023/01/13 10:32:20;;;;;;;11.80;8.10;;;;;;;10.74;59.83;95890.52;110293;1269;22248;-68
2023/01/13 10:34:50;;;;;;;8.20;6.40;;;;;;;11.02;60.99;95892.91;110274;1277;22185;-66
2023/01/13 10:37:27;;;;;;;14.40;10.40;;;;;;;11.36;61.66;95892.90;110268;1277;22196;-66
2023/01/13 10:39:59;;;;;;;8.00;6.80;;;;;;;11.52;58.98;95891.02;110216;1277;22175;-65
2023/01/13 10:42:28;;;;;;;6.50;5.80;;;;;;;11.82;59.90;95886.45;110303;1269;22397;-65
2023/01/13 10:44:58;;;;;;;7.70;6.90;;;;;;;12.02;57.87;95883.09;110352;1276;22264;-65
2023/01/13 10:47:33;;;;;;;5.40;4.90;;;;;;;12.06;56.64;95876.13;110246;1276;22158;-66
2023/01/13 10:50:15;;;;;;;5.50;4.70;;;;;;;12.15;55.51;95872.61;110260;1276;22143;-65
2023/01/13 10:53:02;;;;;;;5.90;5.20;;;;;;;12.21;55.66;95878.30;110515;1276;22162;-65
2023/01/13 10:55:35;;;;;;;7.20;5.40;;;;;;;12.36;55.92;95876.93;110523;1276;22171;-65
2023/01/13 10:58:18;;;;;;;6.80;6.10;;;;;;;12.60;55.14;95872.55;110493;1276;22249;-67
2023/01/13 11:00:48;;;;;;;6.20;5.60;;;;;;;12.81;53.69;95870.13;110233;1276;22157;-65
2023/01/13 11:03:20;;;;;;;8.10;6.30;;;;;;;12.91;52.42;95871.48;110239;1276;22432;-65
2023/01/13 11:05:58;;;;;;;9.00;6.60;;;;;;;13.06;52.97;95869.18;110458;1270;22197;-65
2023/01/13 11:08:48;;;;;;;7.10;5.90;;;;;;;13.25;52.03;95860.61;110530;1276;22166;-65
2023/01/13 11:11:27;;;;;;;8.60;6.30;;;;;;;13.40;52.91;95854.08;110293;1276;23001;-65
2023/01/13 11:16:52;;;;;;;8.00;7.00;;;;;;;13.92;51.49;95845.99;110493;1276;22187;-65
2023/01/13 11:19:22;;;;;;;8.50;7.20;;;;;;;14.09;51.25;95844.96;110519;1276;22106;-65
2023/01/13 11:22:04;;;;;;;9.40;7.70;;;;;;;14.12;49.88;95843.64;110520;1276;22120;-65
2023/01/13 11:24:49;;;;;;;11.00;7.60;;;;;;;14.31;49.96;95847.01;110256;1276;22223;-66
2023/01/13 11:28:07;;;;;;;10.00;7.00;;;;;;;14.43;49.32;95846.83;110472;1276;22960;-65
2023/01/13 11:31:33;;;;;;;8.80;7.40;;;;;;;14.37;48.42;95843.45;109998;1276;22274;-68
2023/01/13 11:34:06;;;;;;;7.90;7.10;;;;;;;14.62;47.93;95836.20;110361;1276;22169;-68
2023/01/13 11:36:42;;;;;;;7.50;6.10;;;;;;;14.70;46.97;95831.19;110490;1276;22997;-68
2023/01/13 11:39:25;;;;;;;7.80;6.00;;;;;;;14.64;47.16;95835.26;110475;1276;23104;-67
2023/01/13 11:45:05;;;;;;;8.00;6.40;;;;;;;14.63;46.45;95827.33;110335;1276;22198;-67
2023/01/13 11:47:34;;;;;;;9.00;7.00;;;;;;;14.53;46.78;95831.84;110290;1276;22359;-68
2023/01/13 11:50:12;;;;;;;7.20;5.60;;;;;;;14.49;46.17;95829.85;110506;1276;22141;-65
2023/01/13 11:52:46;;;;;;;6.40;5.60;;;;;;;14.68;46.96;95823.09;110489;1276;22179;-65
2023/01/13 11:55:29;;;;;;;9.80;7.60;;;;;;;15.08;46.64;95819.86;110526;1276;22242;-65
2023/01/13 11:58:23;;;;;;;8.40;7.20;;;;;;;15.36;45.66;95821.77;110491;1276;22139;-65
2023/01/13 12:01:03;;;;;;;8.10;6.70;;;;;;;15.27;45.14;95822.42;110481;1276;22744;-65
2023/01/13 12:03:45;;;;;;;8.60;6.40;;;;;;;14.90;45.54;95819.73;110492;1276;22830;-65
2023/01/13 12:06:30;;;;;;;8.70;6.60;;;;;;;14.74;46.16;95816.71;110293;1276;22142;-65
2023/01/13 12:09:17;;;;;;;7.10;5.50;;;;;;;14.54;45.99;95818.76;110510;1276;22220;-65
2023/01/13 12:12:18;;;;;;;7.90;5.90;;;;;;;14.61;46.28;95814.97;110498;1276;22147;-65
2023/01/13 12:14:55;;;;;;;6.80;5.30;;;;;;;14.96;46.34;95811.93;110492;1276;22131;-65
2023/01/13 12:17:50;;;;;;;9.40;7.60;;;;;;;15.42;45.22;95807.21;110503;1276;22218;-65
2023/01/13 12:20:42;;;;;;;7.70;6.00;;;;;;;15.92;44.02;95803.70;110476;1276;23044;-66
2023/01/13 12:23:33;;;;;;;7.20;6.00;;;;;;;16.27;43.73;95804.72;110463;1276;22148;-66
2023/01/13 12:26:10;;;;;;;10.50;5.60;;;;;;;16.64;42.19;95798.36;110497;1276;22132;-66
2023/01/13 12:29:17;;;;;;;8.00;5.80;;;;;;;16.80;41.88;95801.50;110508;1276;22309;-65
2023/01/13 12:31:50;;;;;;;7.50;6.50;;;;;;;16.73;40.94;95804.60;110318;1276;22565;-66
2023/01/13 12:35:04;;;;;;;7.40;5.00;;;;;;;16.14;41.01;95799.89;110460;1276;22182;-66